createdAt,value
2018-07-30T00:00:59.052Z,25.359497
2018-07-30T00:01:59.060Z,25.349426
2018-07-30T00:02:59.029Z,25.429993
2018-07-30T00:03:59.018Z,25.409851
2018-07-30T00:04:59.004Z,25.309143
2018-07-30T00:05:58.990Z,25.39978
2018-07-30T00:06:58.980Z,25.379639
2018-07-30T00:07:59.000Z,25.309143
2018-07-30T00:08:58.987Z,25.379639
2018-07-30T00:09:58.968Z,25.379639
2018-07-30T00:10:58.962Z,25.39978
2018-07-30T00:11:58.952Z,25.359497
2018-07-30T00:12:58.937Z,25.349426
2018-07-30T00:13:58.952Z,25.278931
2018-07-30T00:14:58.926Z,25.329285
2018-07-30T00:15:58.910Z,25.349426
2018-07-30T00:16:58.920Z,25.278931
2018-07-30T00:17:58.934Z,25.278931
2018-07-30T00:18:58.928Z,25.278931
2018-07-30T00:19:58.953Z,25.319214
2018-07-30T00:20:58.927Z,25.278931
2018-07-30T00:21:58.919Z,25.248718
2018-07-30T00:22:58.924Z,25.289001
2018-07-30T00:23:58.916Z,25.208435
2018-07-30T00:24:58.905Z,25.218506
2018-07-30T00:25:58.918Z,25.228577
2018-07-30T00:26:58.897Z,25.248718
2018-07-30T00:27:58.936Z,25.248718
2018-07-30T00:28:58.904Z,25.248718
2018-07-30T00:29:58.906Z,25.218506
2018-07-30T00:30:59.024Z,25.289001
2018-07-30T00:31:58.930Z,25.258789
2018-07-30T00:32:58.931Z,25.258789
2018-07-30T00:33:58.915Z,25.278931
2018-07-30T00:34:58.906Z,25.168152
2018-07-30T00:35:58.918Z,25.178223
2018-07-30T00:36:58.913Z,25.278931
2018-07-30T00:37:58.931Z,25.218506
2018-07-30T00:38:58.910Z,25.248718
2018-07-30T00:39:58.900Z,25.218506
2018-07-30T00:40:58.898Z,25.218506
2018-07-30T00:41:58.887Z,25.228577
2018-07-30T00:42:58.894Z,25.248718
2018-07-30T00:43:58.901Z,25.158081
2018-07-30T00:44:58.890Z,25.208435
2018-07-30T00:45:58.894Z,25.158081
2018-07-30T00:46:58.891Z,25.137939
2018-07-30T00:47:58.883Z,25.158081
2018-07-30T00:48:58.876Z,25.168152
2018-07-30T00:49:58.881Z,25.097656
2018-07-30T00:50:58.854Z,25.097656
2018-07-30T00:51:58.857Z,25.097656
2018-07-30T00:52:58.840Z,25.097656
2018-07-30T00:53:58.843Z,25.137939
2018-07-30T00:54:58.847Z,25.077515
2018-07-30T00:55:58.844Z,25.107727
2018-07-30T00:56:58.841Z,25.107727
2018-07-30T00:57:58.834Z,25.137939
2018-07-30T00:58:58.849Z,25.097656
2018-07-30T00:59:58.843Z,25.127869
2018-07-30T01:00:58.842Z,25.067444
2018-07-30T01:01:58.846Z,25.107727
2018-07-30T01:02:58.839Z,25.027161
2018-07-30T01:03:58.832Z,24.986877
2018-07-30T01:04:58.828Z,25.057373
2018-07-30T01:05:58.826Z,25.057373
2018-07-30T01:06:58.820Z,25.037231
2018-07-30T01:07:58.852Z,24.986877
2018-07-30T01:08:58.844Z,25.007019
2018-07-30T01:09:58.852Z,25.027161
2018-07-30T01:10:58.844Z,24.926453
2018-07-30T01:11:58.871Z,24.956665
2018-07-30T01:12:58.887Z,24.946594
2018-07-30T01:13:58.902Z,24.926453
2018-07-30T01:14:58.899Z,24.956665
2018-07-30T01:15:58.897Z,24.855957
2018-07-30T01:16:58.896Z,24.876099
2018-07-30T01:17:58.895Z,24.906311
2018-07-30T01:18:58.893Z,24.956665
2018-07-30T01:19:59.167Z,24.946594
2018-07-30T01:20:58.916Z,24.926453
2018-07-30T01:21:58.922Z,24.946594
2018-07-30T01:22:58.921Z,24.956665
2018-07-30T01:23:58.923Z,24.906311
2018-07-30T01:24:58.918Z,24.926453
2018-07-30T01:25:58.931Z,24.886169
2018-07-30T01:26:58.905Z,24.916382
2018-07-30T01:27:58.903Z,24.855957
2018-07-30T01:28:58.978Z,24.876099
2018-07-30T01:29:58.899Z,24.835815
2018-07-30T01:30:58.889Z,24.916382
2018-07-30T01:31:58.909Z,24.845886
2018-07-30T01:32:58.918Z,24.876099
2018-07-30T01:33:58.946Z,24.855957
2018-07-30T01:34:58.925Z,24.916382
2018-07-30T01:35:58.923Z,24.876099
2018-07-30T01:36:58.939Z,24.835815
2018-07-30T01:37:58.977Z,24.835815
2018-07-30T01:38:58.950Z,24.886169
2018-07-30T01:39:58.962Z,24.845886
2018-07-30T01:40:58.966Z,24.876099
2018-07-30T01:41:58.990Z,24.876099
2018-07-30T01:42:59.995Z,24.845886
2018-07-30T01:43:58.977Z,24.795532
2018-07-30T01:44:58.985Z,24.76532
2018-07-30T01:45:59.007Z,24.835815
2018-07-30T01:46:59.018Z,24.775391
2018-07-30T01:47:58.998Z,24.725037
2018-07-30T01:48:59.025Z,24.805603
2018-07-30T01:49:59.019Z,24.775391
2018-07-30T01:51:00.038Z,24.694824
2018-07-30T01:51:59.064Z,24.795532
2018-07-30T01:52:59.056Z,24.775391
2018-07-30T01:53:59.070Z,24.775391
2018-07-30T01:54:59.093Z,24.755249
2018-07-30T01:55:59.094Z,24.76532
2018-07-30T01:56:59.100Z,24.704895
2018-07-30T01:57:59.104Z,24.704895
2018-07-30T01:58:59.108Z,24.76532
2018-07-30T01:59:59.113Z,24.704895
2018-07-30T02:00:59.135Z,24.755249
2018-07-30T02:01:59.112Z,24.694824
2018-07-30T02:02:59.140Z,24.725037
2018-07-30T02:03:59.142Z,24.704895
2018-07-30T02:04:59.194Z,24.775391
2018-07-30T02:05:59.180Z,24.725037
2018-07-30T02:06:59.190Z,24.725037
2018-07-30T02:07:59.182Z,24.735107
2018-07-30T02:08:59.221Z,24.76532
2018-07-30T02:09:59.227Z,24.775391
2018-07-30T02:10:59.227Z,24.735107
2018-07-30T02:11:59.243Z,24.755249
2018-07-30T02:12:59.263Z,24.725037
2018-07-30T02:13:59.256Z,24.775391
2018-07-30T02:14:59.275Z,24.725037
2018-07-30T02:15:59.282Z,24.795532
2018-07-30T02:16:59.295Z,24.735107
2018-07-30T02:17:59.301Z,24.694824
2018-07-30T02:18:59.338Z,24.664612
2018-07-30T02:19:59.329Z,24.735107
2018-07-30T02:20:59.320Z,24.725037
2018-07-30T02:21:59.348Z,24.725037
2018-07-30T02:22:59.342Z,24.634399
2018-07-30T02:23:59.355Z,24.584045
2018-07-30T02:24:59.359Z,24.614258
2018-07-30T02:25:59.337Z,24.584045
2018-07-30T02:26:59.336Z,24.584045
2018-07-30T02:27:59.335Z,24.503479
2018-07-30T02:28:59.351Z,24.483337
2018-07-30T02:29:59.384Z,24.543762
2018-07-30T02:30:59.399Z,24.453125
2018-07-30T02:31:59.375Z,24.473267
2018-07-30T02:32:59.396Z,24.3927
2018-07-30T02:33:59.408Z,24.422913
2018-07-30T02:34:59.421Z,24.422913
2018-07-30T02:35:59.430Z,24.402771
2018-07-30T02:36:59.469Z,24.3927
2018-07-30T02:37:59.464Z,24.422913
2018-07-30T02:38:59.494Z,24.362488
2018-07-30T02:39:59.515Z,24.352417
2018-07-30T02:40:59.531Z,24.362488
2018-07-30T02:41:59.542Z,24.332275
2018-07-30T02:42:59.566Z,24.302063
2018-07-30T02:43:59.579Z,24.291992
2018-07-30T02:44:59.585Z,24.281921
2018-07-30T02:45:59.595Z,24.281921
2018-07-30T02:46:59.615Z,24.332275
2018-07-30T02:47:59.611Z,24.302063
2018-07-30T02:48:59.634Z,24.322205
2018-07-30T02:49:59.638Z,24.211426
2018-07-30T02:50:59.653Z,24.291992
2018-07-30T02:51:59.660Z,24.241638
2018-07-30T02:52:59.676Z,24.26178
2018-07-30T02:53:59.682Z,24.171143
2018-07-30T02:54:59.705Z,24.171143
2018-07-30T02:55:59.726Z,24.171143
2018-07-30T02:56:59.733Z,24.130859
2018-07-30T02:57:59.774Z,24.171143
2018-07-30T02:58:59.782Z,24.14093
2018-07-30T02:59:59.802Z,24.080505
2018-07-30T03:00:59.886Z,24.050293
2018-07-30T03:01:59.839Z,24.080505
2018-07-30T03:02:59.865Z,24.020081
2018-07-30T03:03:59.887Z,23.959656
2018-07-30T03:04:59.932Z,23.959656
2018-07-30T03:05:59.963Z,23.959656
2018-07-30T03:06:59.991Z,23.929443
2018-07-30T03:07:59.981Z,23.858948
2018-07-30T03:09:00.016Z,23.869019
2018-07-30T03:10:00.032Z,23.828735
2018-07-30T03:11:00.052Z,23.858948
2018-07-30T03:12:00.107Z,23.828735
2018-07-30T03:13:00.106Z,23.808594
2018-07-30T03:14:00.131Z,23.798523
2018-07-30T03:15:00.153Z,23.808594
2018-07-30T03:16:00.185Z,23.808594
2018-07-30T03:17:00.214Z,23.75824
2018-07-30T03:18:00.260Z,23.778381
2018-07-30T03:19:00.300Z,23.75824
2018-07-30T03:20:00.344Z,23.738098
2018-07-30T03:21:00.373Z,23.768311
2018-07-30T03:22:00.405Z,23.75824
2018-07-30T03:23:00.440Z,23.707886
2018-07-30T03:24:00.483Z,23.75824
2018-07-30T03:25:00.493Z,23.687744
2018-07-30T03:26:00.517Z,23.738098
2018-07-30T03:27:00.555Z,23.687744
2018-07-30T03:28:00.596Z,23.75824
2018-07-30T03:29:00.608Z,23.707886
2018-07-30T03:30:00.649Z,23.75824
2018-07-30T03:31:00.652Z,23.677673
2018-07-30T03:32:00.670Z,23.657532
2018-07-30T03:33:00.681Z,23.647461
2018-07-30T03:34:00.722Z,23.627319
2018-07-30T03:35:00.759Z,23.687744
2018-07-30T03:36:00.776Z,23.617249
2018-07-30T03:37:00.797Z,23.627319
2018-07-30T03:38:00.839Z,23.627319
2018-07-30T03:39:00.875Z,23.556824
2018-07-30T03:40:00.902Z,23.556824
2018-07-30T03:41:00.928Z,23.576965
2018-07-30T03:42:00.973Z,23.50647
2018-07-30T03:43:00.997Z,23.496399
2018-07-30T03:44:01.046Z,23.456116
2018-07-30T03:45:01.048Z,23.496399
2018-07-30T03:46:01.064Z,23.466187
2018-07-30T03:47:01.116Z,23.405762
2018-07-30T03:48:01.158Z,23.365479
2018-07-30T03:49:01.151Z,23.395691
2018-07-30T03:50:01.164Z,23.355408
2018-07-30T03:51:01.210Z,23.365479
2018-07-30T03:52:01.228Z,23.315125
2018-07-30T03:53:01.278Z,23.2547
2018-07-30T03:54:01.304Z,23.2547
2018-07-30T03:55:01.330Z,23.214417
2018-07-30T03:56:01.360Z,23.234558
2018-07-30T03:57:01.400Z,23.184204
2018-07-30T03:58:01.477Z,23.174133
2018-07-30T03:59:01.444Z,23.174133
2018-07-30T04:00:01.548Z,23.153992
2018-07-30T04:01:01.498Z,23.153992
2018-07-30T04:02:01.522Z,23.123779
2018-07-30T04:03:01.583Z,23.103638
2018-07-30T04:04:01.601Z,23.083496
2018-07-30T04:05:01.658Z,23.053284
2018-07-30T04:06:01.705Z,23.053284
2018-07-30T04:07:01.709Z,23.063354
2018-07-30T04:08:01.821Z,23.083496
2018-07-30T04:09:01.750Z,23.053284
2018-07-30T04:10:01.793Z,23.053284
2018-07-30T04:11:01.838Z,23.063354
2018-07-30T04:12:01.857Z,23.083496
2018-07-30T04:13:01.880Z,23.063354
2018-07-30T04:14:01.925Z,23.053284
2018-07-30T04:15:01.976Z,23.083496
2018-07-30T04:16:03.039Z,23.083496
2018-07-30T04:17:02.061Z,23.083496
2018-07-30T04:18:02.090Z,23.103638
2018-07-30T04:19:02.126Z,23.103638
2018-07-30T04:20:02.152Z,23.123779
2018-07-30T04:21:02.174Z,23.103638
2018-07-30T04:22:02.254Z,23.13385
2018-07-30T04:23:02.226Z,23.13385
2018-07-30T04:24:02.272Z,23.123779
2018-07-30T04:25:02.321Z,23.13385
2018-07-30T04:26:02.343Z,23.153992
2018-07-30T04:27:02.383Z,23.153992
2018-07-30T04:28:02.421Z,23.184204
2018-07-30T04:29:02.437Z,23.174133
2018-07-30T04:30:02.468Z,23.153992
2018-07-30T04:31:02.493Z,23.184204
2018-07-30T04:32:02.533Z,23.204346
2018-07-30T04:33:02.572Z,23.214417
2018-07-30T04:34:02.600Z,23.234558
2018-07-30T04:35:02.628Z,23.244629
2018-07-30T04:36:02.684Z,23.244629
2018-07-30T04:37:02.714Z,23.284912
2018-07-30T04:38:02.744Z,23.284912
2018-07-30T04:39:02.789Z,23.335266
2018-07-30T04:40:02.841Z,23.365479
2018-07-30T04:41:02.853Z,23.335266
2018-07-30T04:42:02.906Z,23.395691
2018-07-30T04:43:02.943Z,23.395691
2018-07-30T04:44:02.980Z,23.38562
2018-07-30T04:45:03.013Z,23.405762
2018-07-30T04:46:03.087Z,23.435974
2018-07-30T04:47:03.068Z,23.435974
2018-07-30T04:48:03.092Z,23.435974
2018-07-30T04:49:03.137Z,23.435974
2018-07-30T04:50:03.186Z,23.435974
2018-07-30T04:51:03.208Z,23.496399
2018-07-30T04:52:03.549Z,23.496399
2018-07-30T04:53:03.261Z,23.50647
2018-07-30T04:54:03.289Z,23.546753
2018-07-30T04:55:03.333Z,23.536682
2018-07-30T04:56:03.349Z,23.536682
2018-07-30T04:57:03.492Z,23.50647
2018-07-30T04:58:03.471Z,23.536682
2018-07-30T04:59:03.496Z,23.536682
2018-07-30T05:00:03.516Z,23.536682
2018-07-30T05:01:03.557Z,23.536682
2018-07-30T05:02:04.593Z,23.536682
2018-07-30T05:03:03.616Z,23.617249
2018-07-30T05:04:03.911Z,23.607178
2018-07-30T05:05:03.674Z,23.556824
2018-07-30T05:06:03.708Z,23.546753
2018-07-30T05:07:03.761Z,23.556824
2018-07-30T05:08:03.774Z,23.556824
2018-07-30T05:09:03.786Z,23.556824
2018-07-30T05:10:03.830Z,23.556824
2018-07-30T05:11:03.949Z,23.587036
2018-07-30T05:12:03.878Z,23.587036
2018-07-30T05:13:03.904Z,23.647461
2018-07-30T05:14:03.921Z,23.617249
2018-07-30T05:15:03.951Z,23.627319
2018-07-30T05:16:04.004Z,23.607178
2018-07-30T05:17:03.989Z,23.657532
2018-07-30T05:18:04.009Z,23.677673
2018-07-30T05:19:04.039Z,23.707886
2018-07-30T05:20:04.060Z,23.707886
2018-07-30T05:21:04.072Z,23.768311
2018-07-30T05:22:04.141Z,23.707886
2018-07-30T05:23:04.121Z,23.768311
2018-07-30T05:24:04.164Z,23.728027
2018-07-30T05:25:04.189Z,23.828735
2018-07-30T05:26:04.218Z,23.768311
2018-07-30T05:27:04.238Z,23.778381
2018-07-30T05:28:04.279Z,23.808594
2018-07-30T05:29:05.301Z,23.838806
2018-07-30T05:30:04.324Z,23.808594
2018-07-30T05:31:04.350Z,23.909302
2018-07-30T05:32:04.378Z,23.929443
2018-07-30T05:33:04.414Z,23.959656
2018-07-30T05:34:04.466Z,23.949585
2018-07-30T05:35:04.466Z,23.919373
2018-07-30T05:36:04.491Z,23.959656
2018-07-30T05:37:04.509Z,23.979797
2018-07-30T05:38:04.540Z,23.949585
2018-07-30T05:39:04.560Z,23.989868
2018-07-30T05:40:04.599Z,23.979797
2018-07-30T05:41:04.603Z,24.01001
2018-07-30T05:42:04.667Z,23.979797
2018-07-30T05:43:04.649Z,24.01001
2018-07-30T05:44:04.672Z,24.020081
2018-07-30T05:45:04.716Z,24.060364
2018-07-30T05:46:04.753Z,23.979797
2018-07-30T05:47:04.773Z,23.979797
2018-07-30T05:48:04.806Z,24.030151
2018-07-30T05:49:04.834Z,23.979797
2018-07-30T05:50:04.874Z,24.01001
2018-07-30T05:51:04.901Z,23.989868
2018-07-30T05:52:04.952Z,24.060364
2018-07-30T05:53:04.946Z,24.060364
2018-07-30T05:54:05.003Z,23.979797
2018-07-30T05:55:05.062Z,24.050293
2018-07-30T05:56:05.055Z,24.020081
2018-07-30T05:57:05.084Z,24.100647
2018-07-30T05:58:05.139Z,24.080505
2018-07-30T05:59:05.135Z,24.080505
2018-07-30T06:00:05.166Z,24.110718
2018-07-30T06:01:05.190Z,24.14093
2018-07-30T06:02:05.208Z,24.130859
2018-07-30T06:03:05.247Z,24.110718
2018-07-30T06:04:05.282Z,24.211426
2018-07-30T06:05:05.290Z,24.161072
2018-07-30T06:06:05.309Z,24.332275
2018-07-30T06:07:05.321Z,24.291992
2018-07-30T06:08:05.332Z,24.382629
2018-07-30T06:09:05.368Z,24.382629
2018-07-30T06:10:05.680Z,24.3927
2018-07-30T06:11:05.401Z,24.503479
2018-07-30T06:12:05.412Z,24.473267
2018-07-30T06:13:05.421Z,24.503479
2018-07-30T06:14:05.437Z,24.654541
2018-07-30T06:15:05.477Z,24.694824
2018-07-30T06:16:05.513Z,24.735107
2018-07-30T06:17:05.489Z,24.795532
2018-07-30T06:18:05.499Z,24.835815
2018-07-30T06:19:05.521Z,24.906311
2018-07-30T06:20:05.560Z,25.027161
2018-07-30T06:21:05.566Z,25.007019
2018-07-30T06:22:05.602Z,25.027161
2018-07-30T06:23:05.587Z,25.137939
2018-07-30T06:24:05.601Z,25.158081
2018-07-30T06:25:05.612Z,25.178223
2018-07-30T06:26:05.610Z,25.218506
2018-07-30T06:27:05.619Z,25.258789
2018-07-30T06:28:05.652Z,25.349426
2018-07-30T06:29:05.641Z,25.329285
2018-07-30T06:30:05.639Z,25.379639
2018-07-30T06:31:05.659Z,25.379639
2018-07-30T06:32:05.648Z,25.429993
2018-07-30T06:33:05.645Z,25.460205
2018-07-30T06:34:05.671Z,25.480347
2018-07-30T06:35:05.646Z,25.500488
2018-07-30T06:36:05.642Z,25.530701
2018-07-30T06:37:05.671Z,25.540771
2018-07-30T06:38:05.673Z,25.581055
2018-07-30T06:39:05.673Z,25.621338
2018-07-30T06:40:05.976Z,25.65155
2018-07-30T06:41:05.671Z,25.661621
2018-07-30T06:42:05.678Z,25.631409
2018-07-30T06:43:05.686Z,25.722046
2018-07-30T06:44:05.696Z,25.732117
2018-07-30T06:45:05.697Z,25.722046
2018-07-30T06:46:05.722Z,25.7724
2018-07-30T06:47:05.691Z,25.802612
2018-07-30T06:48:05.693Z,25.832825
2018-07-30T06:49:05.677Z,25.90332
2018-07-30T06:50:05.669Z,25.993958
2018-07-30T06:51:05.653Z,26.034241
2018-07-30T06:52:05.772Z,25.983887
2018-07-30T06:53:05.638Z,26.064453
2018-07-30T06:54:05.640Z,25.993958
2018-07-30T06:55:05.632Z,26.134949
2018-07-30T06:56:05.623Z,26.215515
2018-07-30T06:57:05.613Z,26.15509
2018-07-30T06:58:05.615Z,26.245728
2018-07-30T06:59:05.607Z,26.205444
2018-07-30T07:00:05.599Z,26.366577
2018-07-30T07:01:05.597Z,26.366577
2018-07-30T07:02:05.632Z,26.286011
2018-07-30T07:03:05.567Z,26.356506
2018-07-30T07:04:05.582Z,26.507568
2018-07-30T07:05:05.555Z,26.52771
2018-07-30T07:06:05.523Z,26.507568
2018-07-30T07:07:05.515Z,26.557922
2018-07-30T07:08:05.503Z,26.598206
2018-07-30T07:09:05.481Z,26.547852
2018-07-30T07:10:05.772Z,26.588135
2018-07-30T07:11:05.455Z,26.65863
2018-07-30T07:12:05.443Z,26.618347
2018-07-30T07:13:05.431Z,26.809692
2018-07-30T07:14:05.419Z,26.698914
2018-07-30T07:15:05.457Z,26.749268
2018-07-30T07:16:05.382Z,26.829834
2018-07-30T07:17:05.370Z,26.90033
2018-07-30T07:18:05.368Z,26.849976
2018-07-30T07:19:05.335Z,26.920471
2018-07-30T07:20:05.313Z,27.021179
2018-07-30T07:21:05.314Z,27.001038
2018-07-30T07:22:05.363Z,27.021179
2018-07-30T07:23:05.287Z,27.071533
2018-07-30T07:24:05.269Z,27.142029
2018-07-30T07:25:05.260Z,27.172241
2018-07-30T07:26:05.238Z,27.222595
2018-07-30T07:27:05.331Z,27.262878
2018-07-30T07:28:05.258Z,27.293091
2018-07-30T07:29:05.174Z,27.333374
2018-07-30T07:30:05.131Z,27.373657
2018-07-30T07:31:05.104Z,27.424011
2018-07-30T07:32:05.075Z,27.474365
2018-07-30T07:33:05.051Z,27.514648
2018-07-30T07:34:05.047Z,27.585144
2018-07-30T07:35:05.044Z,27.66571
2018-07-30T07:36:04.971Z,27.705994
2018-07-30T07:37:04.977Z,27.776489
2018-07-30T07:38:04.932Z,27.91748
2018-07-30T07:39:04.907Z,27.947693
2018-07-30T07:40:04.892Z,28.018188
2018-07-30T07:41:04.841Z,28.189392
2018-07-30T07:42:04.817Z,28.330383
2018-07-30T07:43:04.769Z,28.521729
2018-07-30T07:44:04.753Z,28.854065
2018-07-30T07:45:04.781Z,29.115906
2018-07-30T07:46:04.686Z,29.468384
2018-07-30T07:47:04.629Z,29.790649
2018-07-30T07:48:04.569Z,30.05249
2018-07-30T07:49:04.499Z,30.183411
2018-07-30T07:50:04.517Z,30.314331
2018-07-30T07:51:04.574Z,30.394897
2018-07-30T07:52:04.337Z,30.475464
2018-07-30T07:53:04.244Z,30.505676
2018-07-30T07:54:04.172Z,30.535889
2018-07-30T07:55:04.116Z,30.606384
2018-07-30T07:56:04.043Z,30.626526
2018-07-30T07:57:03.988Z,30.67688
2018-07-30T07:58:03.963Z,30.717163
2018-07-30T07:59:03.843Z,30.827942
2018-07-30T08:00:03.783Z,30.848083
2018-07-30T08:01:03.718Z,30.838013
2018-07-30T08:02:03.648Z,30.938721
2018-07-30T08:03:03.578Z,30.968933
2018-07-30T08:04:03.523Z,30.968933
2018-07-30T08:05:03.436Z,31.05957
2018-07-30T08:06:03.365Z,31.119995
2018-07-30T08:07:03.287Z,31.150208
2018-07-30T08:08:03.200Z,31.250916
2018-07-30T08:09:03.127Z,31.31134
2018-07-30T08:10:03.054Z,31.341553
2018-07-30T08:11:04.063Z,31.43219
2018-07-30T08:12:02.889Z,31.472473
2018-07-30T08:13:02.812Z,31.56311
2018-07-30T08:14:02.720Z,31.613464
2018-07-30T08:15:02.639Z,31.714172
2018-07-30T08:16:02.599Z,31.81488
2018-07-30T08:17:02.489Z,32.006226
2018-07-30T08:18:02.373Z,32.177429
2018-07-30T08:19:02.293Z,32.398987
2018-07-30T08:20:02.177Z,32.630615
2018-07-30T08:21:02.076Z,32.932739
2018-07-30T08:22:02.028Z,33.154297
2018-07-30T08:23:01.883Z,33.5672
2018-07-30T08:24:01.780Z,33.94989
2018-07-30T08:25:01.665Z,34.352722
2018-07-30T08:26:01.545Z,34.624634
2018-07-30T08:27:01.452Z,34.926758
2018-07-30T08:28:01.295Z,35.289307
2018-07-30T08:29:01.149Z,35.671997
2018-07-30T08:30:00.980Z,36.074829
2018-07-30T08:31:00.869Z,36.517944
2018-07-30T08:32:00.700Z,36.890564
2018-07-30T08:33:00.618Z,37.253113
2018-07-30T08:34:00.404Z,37.525024
2018-07-30T08:35:00.254Z,37.746582
2018-07-30T08:36:00.132Z,37.857361
2018-07-30T08:36:59.922Z,37.937927
2018-07-30T08:37:59.748Z,38.139343
2018-07-30T08:38:59.568Z,38.381042
2018-07-30T08:39:59.420Z,38.622742
2018-07-30T08:40:59.244Z,38.844299
2018-07-30T08:41:59.065Z,38.945007
2018-07-30T08:42:58.880Z,39.035645
2018-07-30T08:43:58.697Z,39.146423
2018-07-30T08:44:58.508Z,39.186707
2018-07-30T08:45:58.637Z,39.237061
2018-07-30T08:46:58.133Z,39.307556
2018-07-30T08:47:57.949Z,39.297485
2018-07-30T08:48:57.772Z,39.206848
2018-07-30T08:49:57.585Z,39.025574
2018-07-30T08:50:57.397Z,38.874512
2018-07-30T08:51:57.233Z,38.793945
2018-07-30T08:52:57.024Z,38.622742
2018-07-30T08:53:56.828Z,38.421326
2018-07-30T08:54:56.687Z,38.199768
2018-07-30T08:55:56.483Z,38.008423
2018-07-30T08:56:56.305Z,37.917786
2018-07-30T08:57:56.131Z,37.917786
2018-07-30T08:58:55.953Z,37.988281
2018-07-30T08:59:55.788Z,38.189697
2018-07-30T09:00:55.613Z,38.431396
2018-07-30T09:01:55.445Z,38.713379
2018-07-30T09:02:55.277Z,39.025574
2018-07-30T09:03:55.390Z,39.297485
2018-07-30T09:04:55.900Z,39.458618
2018-07-30T09:05:54.687Z,39.619751
2018-07-30T09:06:54.498Z,39.891663
2018-07-30T09:07:54.294Z,40.083008
2018-07-30T09:08:54.089Z,40.153503
2018-07-30T09:09:53.934Z,40.153503
2018-07-30T09:10:53.723Z,40.23407
2018-07-30T09:11:53.529Z,40.264282
2018-07-30T09:12:53.431Z,40.395203
2018-07-30T09:13:53.145Z,40.495911
2018-07-30T09:14:52.942Z,40.626831
2018-07-30T09:15:52.750Z,40.777893
2018-07-30T09:16:52.548Z,40.818176
2018-07-30T09:17:52.355Z,40.818176
2018-07-30T09:18:52.166Z,40.687256
2018-07-30T09:19:51.956Z,40.626831
2018-07-30T09:20:51.758Z,40.495911
2018-07-30T09:21:51.578Z,40.395203
2018-07-30T09:22:51.356Z,40.375061
2018-07-30T09:23:51.184Z,40.425415
2018-07-30T09:24:50.961Z,40.576477
2018-07-30T09:25:50.785Z,40.657043
2018-07-30T09:26:50.630Z,40.86853
2018-07-30T09:27:50.386Z,40.98938
2018-07-30T09:28:50.161Z,41.100159
2018-07-30T09:29:49.969Z,41.029663
2018-07-30T09:30:49.748Z,40.969238
2018-07-30T09:31:49.540Z,40.898743
2018-07-30T09:32:49.455Z,40.848389
2018-07-30T09:33:49.146Z,40.818176
2018-07-30T09:34:48.953Z,40.918884
2018-07-30T09:35:48.741Z,41.029663
2018-07-30T09:36:48.545Z,41.140442
2018-07-30T09:37:48.366Z,41.261292
2018-07-30T09:38:48.158Z,41.432495
2018-07-30T09:39:47.951Z,41.603699
2018-07-30T09:40:47.703Z,41.784973
2018-07-30T09:41:47.504Z,41.915894
2018-07-30T09:42:47.284Z,42.087097
2018-07-30T09:43:47.084Z,42.359009
2018-07-30T09:44:46.906Z,42.731628
2018-07-30T09:45:46.668Z,42.973328
2018-07-30T09:46:46.421Z,43.084106
2018-07-30T09:47:46.170Z,43.184814
2018-07-30T09:48:45.946Z,43.356018
2018-07-30T09:49:45.706Z,43.547363
2018-07-30T09:50:45.462Z,43.678284
2018-07-30T09:51:45.237Z,43.789062
2018-07-30T09:52:44.991Z,43.75885
2018-07-30T09:53:44.750Z,43.728638
2018-07-30T09:54:44.502Z,43.728638
2018-07-30T09:55:44.280Z,43.829346
2018-07-30T09:56:44.014Z,43.909912
2018-07-30T09:57:43.826Z,43.950195
2018-07-30T09:58:43.572Z,43.990479
2018-07-30T09:59:43.322Z,44.01062
2018-07-30T10:00:43.074Z,44.01062
2018-07-30T10:01:42.829Z,44.060974
2018-07-30T10:02:42.590Z,44.201965
2018-07-30T10:03:42.360Z,44.242249
2018-07-30T10:04:42.102Z,44.212036
2018-07-30T10:05:41.857Z,44.141541
2018-07-30T10:06:41.622Z,44.171753
2018-07-30T10:07:41.377Z,44.292603
2018-07-30T10:08:41.123Z,44.483948
2018-07-30T10:09:40.903Z,44.735718
2018-07-30T10:10:40.637Z,44.937134
2018-07-30T10:11:40.487Z,45.148621
2018-07-30T10:12:40.136Z,45.370178
2018-07-30T10:13:39.885Z,45.551453
2018-07-30T10:14:39.606Z,45.742798
2018-07-30T10:15:39.376Z,45.813293
2018-07-30T10:16:39.098Z,45.77301
2018-07-30T10:17:38.863Z,45.752869
2018-07-30T10:18:38.594Z,45.652161
2018-07-30T10:19:38.316Z,45.551453
2018-07-30T10:20:38.112Z,45.400391
2018-07-30T10:21:38.126Z,45.249329
2018-07-30T10:22:37.545Z,45.239258
2018-07-30T10:23:37.303Z,45.319824
2018-07-30T10:24:37.020Z,45.551453
2018-07-30T10:25:36.759Z,45.813293
2018-07-30T10:26:36.492Z,46.034851
2018-07-30T10:27:36.257Z,46.216125
2018-07-30T10:28:35.975Z,46.165771
2018-07-30T10:29:35.701Z,46.065063
2018-07-30T10:30:35.456Z,45.974426
2018-07-30T10:31:35.192Z,46.004639
2018-07-30T10:32:34.922Z,45.994568
2018-07-30T10:33:34.707Z,45.964355
2018-07-30T10:34:34.440Z,46.165771
2018-07-30T10:35:34.153Z,46.427612
2018-07-30T10:36:33.865Z,46.548462
2018-07-30T10:37:33.618Z,46.608887
2018-07-30T10:38:33.358Z,46.759949
2018-07-30T10:39:33.119Z,47.082214
2018-07-30T10:40:32.824Z,47.454834
2018-07-30T10:41:32.528Z,47.807312
2018-07-30T10:42:32.245Z,48.139648
2018-07-30T10:43:31.974Z,48.441772
2018-07-30T10:44:31.716Z,48.683472
2018-07-30T10:45:31.404Z,48.824463
2018-07-30T10:46:31.111Z,48.945312
2018-07-30T10:47:30.843Z,49.015808
2018-07-30T10:48:30.512Z,49.136658
2018-07-30T10:49:30.246Z,49.28772
2018-07-30T10:50:29.948Z,49.448853
2018-07-30T10:51:29.679Z,49.640198
2018-07-30T10:52:29.355Z,49.902039
2018-07-30T10:53:29.061Z,50.053101
2018-07-30T10:54:28.752Z,50.17395
2018-07-30T10:55:28.454Z,50.335083
2018-07-30T10:56:28.140Z,50.466003
2018-07-30T10:57:27.855Z,50.54657
2018-07-30T10:58:27.525Z,50.496216
2018-07-30T10:59:27.209Z,50.284729
2018-07-30T11:00:26.934Z,49.982605
2018-07-30T11:01:26.607Z,49.630127
2018-07-30T11:02:26.283Z,49.066162
2018-07-30T11:03:25.999Z,48.552551
2018-07-30T11:04:25.702Z,48.059082
2018-07-30T11:05:25.527Z,47.52533
2018-07-30T11:06:25.164Z,47.011719
2018-07-30T11:07:24.860Z,46.52832
2018-07-30T11:08:24.587Z,46.065063
2018-07-30T11:09:26.703Z,45.662231
2018-07-30T11:10:24.029Z,45.430603
2018-07-30T11:11:23.770Z,45.279541
2018-07-30T11:12:23.523Z,45.279541
2018-07-30T11:13:23.219Z,45.39032
2018-07-30T11:14:22.959Z,45.621948
2018-07-30T11:15:22.703Z,45.89386
2018-07-30T11:16:22.398Z,46.256409
2018-07-30T11:17:22.119Z,46.639099
2018-07-30T11:18:21.849Z,46.860657
2018-07-30T11:19:21.568Z,46.880798
2018-07-30T11:20:21.279Z,46.790161
2018-07-30T11:21:21.286Z,46.729736
2018-07-30T11:22:20.739Z,46.548462
2018-07-30T11:23:20.466Z,46.498108
2018-07-30T11:24:20.172Z,46.498108
2018-07-30T11:25:19.887Z,46.417542
2018-07-30T11:26:19.610Z,46.357117